createdAt,value
2023-12-28T00:00:55.181Z,23.73
2023-12-28T00:03:44.859Z,20.27
2023-12-28T00:06:34.791Z,42.67
2023-12-28T00:09:29.298Z,57.03
2023-12-28T00:12:21.251Z,68.30
2023-12-28T00:15:11.250Z,67.53
2023-12-28T00:18:02.267Z,76.63
2023-12-28T00:20:50.962Z,70.47
2023-12-28T00:23:38.601Z,69.60
2023-12-28T00:26:24.634Z,68.53
2023-12-28T00:29:12.013Z,68.53
2023-12-28T00:32:03.308Z,75.40
2023-12-28T00:34:55.150Z,61.77
2023-12-28T00:37:41.091Z,66.97
2023-12-28T00:40:31.702Z,71.07
2023-12-28T00:43:18.932Z,65.43
2023-12-28T00:46:05.351Z,67.60
2023-12-28T00:48:56.105Z,63.00
2023-12-28T00:51:42.987Z,65.13
2023-12-28T00:54:35.668Z,71.90
2023-12-28T00:57:27.251Z,65.00
2023-12-28T01:00:16.611Z,58.47
2023-12-28T01:03:03.113Z,68.53
2023-12-28T01:05:55.744Z,68.80
2023-12-28T01:08:44.075Z,70.47
2023-12-28T01:11:34.580Z,63.27
2023-12-28T01:14:20.598Z,70.23
2023-12-28T01:17:07.129Z,66.27
2023-12-28T01:19:59.063Z,52.57
2023-12-28T01:22:51.729Z,43.60
2023-12-28T01:25:41.662Z,35.37
2023-12-28T01:28:34.508Z,36.23
2023-12-28T01:31:19.261Z,38.20
2023-12-28T01:34:11.368Z,46.73
2023-12-28T01:36:58.736Z,35.47
2023-12-28T01:39:50.453Z,32.10
2023-12-28T01:42:37.551Z,28.67
2023-12-28T01:45:28.893Z,27.93
2023-12-28T01:48:22.987Z,30.03
2023-12-28T01:51:09.451Z,29.43
2023-12-28T01:54:00.838Z,25.07
2023-12-28T01:56:52.932Z,19.60
2023-12-28T01:59:43.010Z,24.07
2023-12-28T02:02:32.195Z,23.13
2023-12-28T02:05:23.478Z,24.77
2023-12-28T02:08:11.194Z,21.03
2023-12-28T02:11:01.339Z,27.07
2023-12-28T02:13:49.213Z,21.97
2023-12-28T02:16:42.121Z,23.70
2023-12-28T02:19:47.264Z,21.13
2023-12-28T02:22:35.375Z,23.23
2023-12-28T02:25:25.539Z,28.43
2023-12-28T02:28:10.786Z,30.80
2023-12-28T02:31:01.435Z,41.27
2023-12-28T02:33:56.203Z,40.80
2023-12-28T02:36:47.748Z,45.93
2023-12-28T02:39:37.221Z,40.93
2023-12-28T02:42:32.098Z,51.13
2023-12-28T02:45:21.250Z,45.10
2023-12-28T02:48:09.851Z,52.40
2023-12-28T02:50:59.587Z,54.03
2023-12-28T02:53:46.942Z,56.40
2023-12-28T02:56:36.026Z,58.27
2023-12-28T02:59:27.648Z,53.93
2023-12-28T03:02:15.354Z,53.97
2023-12-28T03:04:59.486Z,65.20
2023-12-28T03:07:49.730Z,54.03
2023-12-28T03:10:39.474Z,57.50
2023-12-28T03:13:29.892Z,51.67
2023-12-28T03:16:24.212Z,52.47
2023-12-28T03:19:11.187Z,55.67
2023-12-28T03:21:59.522Z,58.67
2023-12-28T03:24:49.947Z,55.23
2023-12-28T03:27:39.417Z,52.30
2023-12-28T03:30:29.641Z,57.80
2023-12-28T03:33:21.056Z,51.73
2023-12-28T03:36:08.907Z,54.43
2023-12-28T03:38:57.794Z,51.40
2023-12-28T03:41:47.559Z,47.93
2023-12-28T03:44:33.736Z,50.67
2023-12-28T03:47:25.695Z,50.33
2023-12-28T03:50:14.335Z,50.47
2023-12-28T03:53:00.844Z,60.93
2023-12-28T03:55:48.194Z,49.07
2023-12-28T03:58:36.224Z,45.93
2023-12-28T04:01:27.428Z,46.00
2023-12-28T04:04:16.631Z,54.57
2023-12-28T04:07:09.343Z,49.97
2023-12-28T04:09:59.719Z,52.33
2023-12-28T04:12:50.381Z,54.47
2023-12-28T04:15:37.910Z,51.23
2023-12-28T04:18:21.811Z,52.70
2023-12-28T04:21:14.374Z,56.67
2023-12-28T04:24:05.655Z,54.37
2023-12-28T04:26:56.960Z,49.90
2023-12-28T04:29:44.801Z,50.00
2023-12-28T04:32:37.049Z,36.03
2023-12-28T04:35:30.067Z,37.90
2023-12-28T04:38:19.373Z,33.73
2023-12-28T04:41:06.524Z,26.43
2023-12-28T04:43:55.168Z,23.97
2023-12-28T04:46:47.343Z,28.27
2023-12-28T04:49:36.829Z,31.87
2023-12-28T04:52:27.960Z,25.30
2023-12-28T04:55:16.890Z,25.27
2023-12-28T04:58:06.935Z,26.97
2023-12-28T05:00:55.648Z,23.77
2023-12-28T05:03:42.179Z,31.53
2023-12-28T05:06:35.876Z,25.90
2023-12-28T05:09:21.212Z,23.80
2023-12-28T05:12:07.217Z,27.60
2023-12-28T05:15:01.360Z,26.47
2023-12-28T05:17:50.768Z,33.30
2023-12-28T05:20:43.757Z,39.17
2023-12-28T05:23:28.249Z,41.00
2023-12-28T05:26:16.859Z,42.60
2023-12-28T05:29:04.655Z,41.63
2023-12-28T05:31:55.346Z,39.57
2023-12-28T05:34:43.533Z,49.30
2023-12-28T05:37:34.658Z,49.43
2023-12-28T05:40:23.437Z,50.33
2023-12-28T05:43:09.035Z,54.00
2023-12-28T05:45:58.814Z,57.73
2023-12-28T05:48:44.559Z,57.37
2023-12-28T05:51:31.410Z,60.87
2023-12-28T05:54:22.184Z,54.30
2023-12-28T05:57:11.375Z,63.23
2023-12-28T06:00:01.413Z,63.37
2023-12-28T06:02:48.654Z,58.03
2023-12-28T06:05:36.295Z,54.03
2023-12-28T06:08:21.071Z,69.00
2023-12-28T06:11:07.744Z,62.83
2023-12-28T06:13:54.788Z,56.57
2023-12-28T06:16:40.372Z,61.30
2023-12-28T06:19:29.286Z,59.23
2023-12-28T06:22:19.255Z,55.20
2023-12-28T06:25:07.343Z,57.50
2023-12-28T06:27:57.502Z,55.23
2023-12-28T06:30:44.003Z,57.17
2023-12-28T06:33:34.033Z,56.00
2023-12-28T06:36:22.662Z,55.43
2023-12-28T06:39:11.683Z,55.60
2023-12-28T06:41:58.037Z,59.00
2023-12-28T06:44:47.423Z,54.80
2023-12-28T06:47:32.520Z,60.17
2023-12-28T06:50:20.702Z,56.67
2023-12-28T06:53:12.792Z,59.53
2023-12-28T06:56:01.726Z,56.37
2023-12-28T06:58:51.051Z,55.13
2023-12-28T07:01:41.812Z,56.97
2023-12-28T07:04:31.389Z,52.13
2023-12-28T07:07:19.845Z,49.73
2023-12-28T07:10:04.176Z,57.77
2023-12-28T07:12:55.334Z,49.33
2023-12-28T07:15:45.096Z,41.27
2023-12-28T07:18:34.070Z,51.43
2023-12-28T07:21:22.182Z,48.30
2023-12-28T07:24:11.106Z,45.10
2023-12-28T07:27:01.452Z,43.73
2023-12-28T07:29:54.224Z,35.67
2023-12-28T07:32:40.586Z,40.63
2023-12-28T07:35:30.636Z,37.50
2023-12-28T07:38:17.522Z,33.57
2023-12-28T07:41:05.024Z,33.63
2023-12-28T07:43:54.208Z,36.07
2023-12-28T07:46:43.886Z,38.03
2023-12-28T07:49:32.499Z,37.13
2023-12-28T07:52:19.770Z,32.97
2023-12-28T07:55:07.959Z,37.97
2023-12-28T07:57:59.030Z,27.83
2023-12-28T08:00:45.889Z,34.43
2023-12-28T08:03:33.757Z,28.87
2023-12-28T08:06:26.360Z,32.73
2023-12-28T08:09:14.567Z,36.70
2023-12-28T08:12:02.866Z,34.20
2023-12-28T08:14:54.727Z,32.10
2023-12-28T08:17:44.184Z,44.43
2023-12-28T08:20:40.127Z,46.00
2023-12-28T08:23:46.025Z,46.73
2023-12-28T08:26:37.985Z,38.13
2023-12-28T08:29:27.176Z,44.80
2023-12-28T08:32:13.918Z,37.83
2023-12-28T08:35:04.610Z,36.43
2023-12-28T08:37:56.073Z,31.60
2023-12-28T08:40:43.097Z,37.63
2023-12-28T08:43:33.855Z,36.13
2023-12-28T08:46:23.365Z,33.83
2023-12-28T08:49:10.808Z,39.97
2023-12-28T08:51:57.499Z,35.20
2023-12-28T08:54:44.386Z,37.83
2023-12-28T08:57:40.305Z,39.23
2023-12-28T09:00:31.761Z,33.07
2023-12-28T09:03:17.861Z,44.37
2023-12-28T09:06:06.754Z,48.10
2023-12-28T09:08:55.354Z,35.60
2023-12-28T09:11:45.705Z,41.73
2023-12-28T09:14:36.355Z,39.00
2023-12-28T09:17:29.351Z,39.73
2023-12-28T09:20:19.978Z,44.23
2023-12-28T09:23:04.620Z,43.30
2023-12-28T09:25:52.618Z,47.00
2023-12-28T09:28:44.604Z,40.70
2023-12-28T09:31:36.127Z,50.70
2023-12-28T09:34:27.770Z,48.77
2023-12-28T09:37:14.516Z,50.43
2023-12-28T09:40:01.838Z,44.83
2023-12-28T09:43:10.072Z,53.97
2023-12-28T09:46:00.954Z,53.47
2023-12-28T09:48:48.988Z,49.60
2023-12-28T09:51:34.673Z,51.90
2023-12-28T09:54:22.195Z,54.27
2023-12-28T09:57:07.409Z,55.57
2023-12-28T09:59:54.528Z,44.90
2023-12-28T10:02:49.358Z,43.37
2023-12-28T10:05:33.939Z,43.07
2023-12-28T10:08:23.088Z,38.50
2023-12-28T10:11:07.941Z,40.13
2023-12-28T10:13:57.497Z,39.83
2023-12-28T10:16:47.530Z,40.90
2023-12-28T10:19:36.849Z,44.73
2023-12-28T10:22:27.778Z,42.07
2023-12-28T10:25:17.221Z,40.83
2023-12-28T10:28:10.077Z,45.60
2023-12-28T10:31:02.053Z,42.97
2023-12-28T10:33:52.481Z,44.73
2023-12-28T10:36:41.978Z,48.83
2023-12-28T10:39:36.128Z,41.00
2023-12-28T10:42:34.571Z,42.93
2023-12-28T10:45:30.618Z,45.53
2023-12-28T10:48:17.078Z,41.27
2023-12-28T10:51:09.913Z,41.57
2023-12-28T10:54:11.797Z,43.17
2023-12-28T10:57:08.133Z,39.00
2023-12-28T11:00:04.479Z,38.10
2023-12-28T11:02:57.631Z,40.67
2023-12-28T11:05:49.632Z,44.00
2023-12-28T11:08:40.568Z,40.70
2023-12-28T11:11:30.998Z,37.97
2023-12-28T11:14:19.021Z,37.07
2023-12-28T11:17:04.662Z,39.80
2023-12-28T11:19:53.127Z,34.37
2023-12-28T11:22:46.820Z,43.47
2023-12-28T11:25:35.495Z,47.87
2023-12-28T11:28:24.553Z,40.83
2023-12-28T11:31:16.797Z,40.60
2023-12-28T11:42:06.200Z,39.70
2023-12-28T11:44:56.476Z,43.33
2023-12-28T11:47:40.069Z,45.27
2023-12-28T11:50:23.479Z,50.53
2023-12-28T11:53:07.049Z,42.80
2023-12-28T11:55:50.145Z,43.03
2023-12-28T11:58:34.228Z,46.77
2023-12-28T12:01:19.108Z,50.23
2023-12-28T12:04:02.419Z,48.83
2023-12-28T12:06:47.376Z,39.77
2023-12-28T12:09:33.622Z,44.37
2023-12-28T12:12:19.315Z,36.10
2023-12-28T12:15:03.287Z,39.63
2023-12-28T12:17:48.901Z,40.87
2023-12-28T12:20:32.479Z,47.50
2023-12-28T12:23:15.791Z,46.13
2023-12-28T12:25:59.141Z,45.37
2023-12-28T12:28:44.555Z,43.23
2023-12-28T12:31:28.652Z,45.03
2023-12-28T12:34:13.878Z,39.90
2023-12-28T12:36:59.677Z,44.40
2023-12-28T12:39:43.012Z,48.67
2023-12-28T12:42:26.354Z,52.00
2023-12-28T12:45:10.192Z,39.83
2023-12-28T12:47:54.380Z,44.87
2023-12-28T12:50:39.162Z,46.90
2023-12-28T12:53:22.226Z,46.83
2023-12-28T12:56:06.442Z,44.73
2023-12-28T12:58:49.698Z,39.53
2023-12-28T13:01:32.915Z,49.07
2023-12-28T13:04:17.222Z,45.97
2023-12-28T13:07:02.080Z,41.03
2023-12-28T13:09:45.226Z,42.77
2023-12-28T13:12:30.906Z,45.47
2023-12-28T13:15:14.078Z,42.27
2023-12-28T13:17:57.260Z,41.83
2023-12-28T13:20:40.385Z,52.63
2023-12-28T13:23:24.975Z,54.13
2023-12-28T13:26:08.159Z,47.47
2023-12-28T13:28:51.283Z,54.07
2023-12-28T13:31:34.458Z,58.03
2023-12-28T13:34:17.744Z,49.53
2023-12-28T13:37:02.572Z,44.97
2023-12-28T13:39:48.501Z,44.90
2023-12-28T13:42:31.682Z,49.80
2023-12-28T13:45:14.973Z,46.97
2023-12-28T13:47:58.594Z,50.33
2023-12-28T13:50:41.716Z,48.63
2023-12-28T13:53:26.282Z,53.83
2023-12-28T13:56:13.436Z,43.23
2023-12-28T13:58:56.528Z,62.33
2023-12-28T14:01:44.407Z,48.30
2023-12-28T14:04:29.609Z,54.93
2023-12-28T14:07:15.525Z,59.90
2023-12-28T14:09:58.692Z,52.97
2023-12-28T14:12:46.278Z,50.87
2023-12-28T14:15:29.676Z,50.63
2023-12-28T14:18:12.830Z,53.40
2023-12-28T14:20:56.203Z,48.30
2023-12-28T14:23:40.261Z,51.07
2023-12-28T14:26:24.893Z,57.93
2023-12-28T14:29:09.944Z,55.00
2023-12-28T14:31:54.042Z,55.13
2023-12-28T14:34:37.769Z,50.67
2023-12-28T14:37:20.947Z,53.90
2023-12-28T14:40:07.597Z,54.53
2023-12-28T14:42:50.955Z,49.37
2023-12-28T14:45:35.552Z,48.77
2023-12-28T14:48:18.768Z,49.43
2023-12-28T14:51:02.016Z,46.13
2023-12-28T14:53:45.380Z,59.67
2023-12-28T14:56:36.265Z,57.37
2023-12-28T14:59:24.211Z,58.80
2023-12-28T15:02:08.881Z,57.00
2023-12-28T15:04:52.272Z,62.73
2023-12-28T15:07:35.510Z,57.33
2023-12-28T15:10:19.975Z,69.57
2023-12-28T15:13:03.688Z,67.93
2023-12-28T15:15:48.242Z,85.40
2023-12-28T15:18:42.938Z,95.03
2023-12-28T15:21:26.838Z,100.07
2023-12-28T15:24:10.746Z,114.07
2023-12-28T15:26:53.899Z,111.80
2023-12-28T15:29:37.091Z,112.53
2023-12-28T15:32:20.547Z,126.63
2023-12-28T15:35:07.636Z,129.53
2023-12-28T15:37:52.242Z,131.37
2023-12-28T15:40:35.444Z,116.80
2023-12-28T15:43:19.515Z,125.77
2023-12-28T15:46:03.035Z,120.00
2023-12-28T15:48:46.913Z,132.10
2023-12-28T15:51:31.532Z,148.47
2023-12-28T15:54:14.751Z,120.93
2023-12-28T15:56:58.372Z,119.93
2023-12-28T15:59:41.477Z,101.30
2023-12-28T16:02:24.583Z,104.17
2023-12-28T16:05:08.809Z,97.20
2023-12-28T16:07:53.351Z,80.57
2023-12-28T16:10:36.474Z,74.30
2023-12-28T16:13:19.562Z,67.20
2023-12-28T16:16:03.325Z,75.20
2023-12-28T16:18:47.259Z,67.30
2023-12-28T16:21:32.281Z,55.77
2023-12-28T16:24:16.872Z,53.87
2023-12-28T16:27:00.249Z,57.50
2023-12-28T16:29:43.499Z,52.30
2023-12-28T16:32:26.695Z,62.50
2023-12-28T16:35:10.290Z,62.03
2023-12-28T16:37:53.460Z,68.40
2023-12-28T16:40:37.968Z,49.87
2023-12-28T16:43:21.142Z,64.90
2023-12-28T16:46:04.344Z,64.00
2023-12-28T16:48:47.896Z,67.13
2023-12-28T16:51:31.126Z,82.97
2023-12-28T16:54:15.071Z,97.23
2023-12-28T16:57:00.186Z,100.43
2023-12-28T16:59:47.562Z,86.50
2023-12-28T17:02:33.403Z,79.93
2023-12-28T17:05:18.103Z,79.53
2023-12-28T17:08:01.933Z,69.53
2023-12-28T17:10:45.733Z,65.30
2023-12-28T17:13:31.170Z,50.40
2023-12-28T17:16:15.131Z,58.80
2023-12-28T17:18:58.805Z,43.97
2023-12-28T17:21:46.443Z,38.67
2023-12-28T17:24:38.304Z,42.77
2023-12-28T17:27:30.364Z,60.10
2023-12-28T17:30:17.780Z,54.53
2023-12-28T17:33:04.024Z,52.00
2023-12-28T17:35:47.861Z,54.03
2023-12-28T17:38:31.385Z,59.77
2023-12-28T17:41:19.110Z,54.10
2023-12-28T17:44:08.515Z,58.47
2023-12-28T17:46:58.404Z,69.30
2023-12-28T17:49:48.951Z,63.97
2023-12-28T17:52:34.627Z,59.90
2023-12-28T17:55:17.980Z,51.70
2023-12-28T17:58:01.849Z,58.47
2023-12-28T18:00:45.181Z,62.67
2023-12-28T18:03:30.008Z,50.63
2023-12-28T18:06:13.262Z,62.47
2023-12-28T18:08:56.334Z,58.00
2023-12-28T18:11:39.503Z,56.53
2023-12-28T18:14:24.584Z,49.33
2023-12-28T18:17:08.232Z,54.77
2023-12-28T18:19:52.939Z,54.30
2023-12-28T18:22:36.505Z,53.50
2023-12-28T18:25:19.678Z,51.53
2023-12-28T18:28:05.184Z,36.63
2023-12-28T18:30:48.452Z,32.57
2023-12-28T18:33:31.723Z,35.87
2023-12-28T18:36:19.241Z,39.70
2023-12-28T18:39:02.389Z,55.57
2023-12-28T18:41:45.521Z,54.10
2023-12-28T18:44:34.313Z,52.67
2023-12-28T18:47:17.944Z,52.63
2023-12-28T18:50:01.264Z,48.57
2023-12-28T18:52:45.892Z,60.33
2023-12-28T18:55:28.926Z,59.03
2023-12-28T18:58:12.181Z,55.07
2023-12-28T19:00:55.410Z,54.87
2023-12-28T19:03:46.785Z,68.07
2023-12-28T19:06:31.294Z,70.77
2023-12-28T19:09:15.849Z,95.13
2023-12-28T19:11:58.974Z,89.20
2023-12-28T19:14:42.294Z,102.83
2023-12-28T19:17:25.428Z,93.70
2023-12-28T19:20:09.952Z,107.37
2023-12-28T19:22:53.159Z,97.17
2023-12-28T19:25:37.692Z,101.53
2023-12-28T19:28:20.895Z,101.17
2023-12-28T19:31:04.110Z,88.53
2023-12-28T19:33:47.380Z,89.17
2023-12-28T19:36:30.592Z,90.80
2023-12-28T19:39:13.897Z,80.63
2023-12-28T19:41:58.348Z,78.70
2023-12-28T19:44:41.441Z,87.07
2023-12-28T19:47:25.184Z,86.93
2023-12-28T19:50:09.670Z,79.83
2023-12-28T19:52:52.763Z,78.17
2023-12-28T19:55:35.925Z,77.73
2023-12-28T19:58:20.758Z,79.33
2023-12-28T20:01:04.001Z,81.07
2023-12-28T20:03:47.231Z,71.73
2023-12-28T20:06:30.518Z,40.17
2023-12-28T20:09:14.336Z,43.93
2023-12-28T20:11:57.449Z,35.33
2023-12-28T20:14:42.074Z,34.10
2023-12-28T20:17:25.261Z,31.87
2023-12-28T20:20:10.470Z,36.33
2023-12-28T20:22:53.695Z,37.57
2023-12-28T20:25:38.288Z,36.03
2023-12-28T20:28:21.500Z,33.17
2023-12-28T20:31:07.035Z,30.23
2023-12-28T20:33:51.298Z,28.70
2023-12-28T20:36:34.521Z,29.03
2023-12-28T20:39:17.602Z,31.60
2023-12-28T20:42:00.726Z,29.77
2023-12-28T20:44:43.789Z,39.67
2023-12-28T20:47:29.007Z,38.90
2023-12-28T20:50:12.566Z,36.13
2023-12-28T20:52:55.673Z,36.17
2023-12-28T20:55:38.884Z,43.90
2023-12-28T20:58:22.008Z,51.50
2023-12-28T21:01:05.972Z,44.67
2023-12-28T21:03:50.775Z,44.70
2023-12-28T21:06:33.953Z,44.43
2023-12-28T21:09:17.126Z,44.63
2023-12-28T21:12:02.877Z,44.27
2023-12-28T21:14:46.442Z,32.47
2023-12-28T21:17:30.355Z,34.47
2023-12-28T21:20:15.180Z,31.97
2023-12-28T21:22:58.407Z,35.17
2023-12-28T21:25:41.566Z,36.87
2023-12-28T21:28:24.680Z,40.27
2023-12-28T21:31:08.326Z,33.10
2023-12-28T21:33:51.850Z,38.87
2023-12-28T21:36:36.823Z,48.23
2023-12-28T21:39:20.574Z,50.93
2023-12-28T21:42:06.729Z,46.47
2023-12-28T21:44:49.820Z,78.70
2023-12-28T21:47:33.027Z,57.27
2023-12-28T21:50:16.345Z,62.30
2023-12-28T21:53:00.847Z,73.63
2023-12-28T21:55:43.942Z,76.93
2023-12-28T21:58:27.120Z,78.03
2023-12-28T22:01:10.477Z,69.77
2023-12-28T22:03:53.702Z,80.97
2023-12-28T22:06:36.826Z,70.87
2023-12-28T22:09:21.714Z,72.73
2023-12-28T22:12:05.640Z,74.93
2023-12-28T22:14:48.743Z,79.63
2023-12-28T22:17:31.867Z,88.17
2023-12-28T22:20:15.558Z,86.67
2023-12-28T22:22:58.728Z,82.10
2023-12-28T22:25:43.352Z,85.20
2023-12-28T22:28:26.423Z,100.37
2023-12-28T22:31:09.581Z,92.83
2023-12-28T22:33:53.301Z,101.10
2023-12-28T22:36:36.692Z,100.07
2023-12-28T22:39:19.787Z,93.77
2023-12-28T22:42:04.273Z,107.30
2023-12-28T22:44:47.506Z,98.13
2023-12-28T22:47:30.942Z,113.93
2023-12-28T22:50:14.226Z,117.50
2023-12-28T22:52:57.334Z,117.30
2023-12-28T22:55:40.686Z,103.43
2023-12-28T22:58:25.197Z,116.03
2023-12-28T23:01:09.833Z,106.73
2023-12-28T23:03:53.065Z,107.93
2023-12-28T23:06:36.231Z,111.63
2023-12-28T23:09:19.405Z,112.90
2023-12-28T23:12:02.478Z,59.07
2023-12-28T23:14:46.944Z,50.30
2023-12-28T23:17:30.062Z,51.40
2023-12-28T23:20:13.795Z,92.80
2023-12-28T23:22:57.897Z,76.43
2023-12-28T23:25:41.021Z,61.80
2023-12-28T23:28:24.113Z,55.13
2023-12-28T23:31:08.977Z,46.63
2023-12-28T23:33:52.829Z,43.37
2023-12-28T23:36:38.340Z,41.70
2023-12-28T23:39:21.480Z,37.83
2023-12-28T23:42:06.012Z,38.60
2023-12-28T23:44:49.377Z,40.93
2023-12-28T23:47:33.849Z,42.13
2023-12-28T23:50:17.068Z,54.87
2023-12-28T23:53:00.249Z,70.83
2023-12-28T23:55:43.347Z,31.43
2023-12-28T23:58:26.415Z,29.57
